Flight Track Log - Related Links

Times and Time Zones

All times are in EDT time to prevent confusion due to time zone crossing. See the AWE1940 flight status page for this flight to view local times or setup timezone preferences in your user account.

Time Position Orientation Groundspeed Altitude Reporting Facility
EDT Latitude Longitude Course Direction KTS MPH feet Rate Location/Type
Tue 10:50:12 PM 35.1928 -80.9356 163° South 164 189 1,800  Level Atlanta Center
Tue 10:51:18 PM 35.1381 -80.9147 163° South 233 268 3,600 2,079 Climbing Atlanta Center
Tue 10:52:19 PM 35.0925 -80.8456 129° Southeast 291 335 6,200 2,902 Climbing Atlanta Center
Tue 10:53:20 PM 35.1192 -80.7453 72° East 298 343 9,500 2,256 Climbing Atlanta Center
Tue 10:54:32 PM 35.1667 -80.6547 57° Northeast 331 381 11,200 1,955 Climbing Atlanta Center
Tue 10:55:32 PM 35.2203 -80.5533 57° Northeast 342 394 13,800 2,450 Climbing Atlanta Center
Tue 10:56:32 PM 35.2714 -80.4519 58° Northeast 347 399 16,100 5,600 Climbing Atlanta Center
Tue 10:57:32 PM 35.3292 -80.3500 55° Northeast 353 406 25,000 1,900 Climbing Atlanta Center
Tue 10:58:32 PM 35.3861 -80.2381 58° Northeast 370 426 19,900 -290 Descending Atlanta Center
Tue 11:00:38 PM 35.4814 -79.9692 66° East 389 448 24,100 1,613 Climbing Washington Center
Tue 11:01:38 PM 35.5133 -79.8356 74° East 389 448 24,900 397 Climbing Washington Center
Tue 11:02:39 PM 35.5472 -79.7019 73° East 395 455 24,900  Level Washington Center
Tue 11:03:39 PM 35.5831 -79.5633 72° East 413 475 24,900 50 Level Washington Center
Tue 11:04:38 PM 35.6267 -79.4481 71° East 418 481 25,000  Climbing Washington Center
Tue 11:05:38 PM 35.7014 -79.3289 52° Northeast 404 465 24,900 -49 Descending Washington Center
Tue 11:06:40 PM 35.7717 -79.2144 53° Northeast 410 472 24,900 49 Level Washington Center
Tue 11:07:40 PM 35.8331 -79.1122 53° Northeast 410 472 25,000  Climbing Washington Center
Tue 11:08:38 PM 35.9097 -78.9875 53° Northeast 432 497 24,900 -50 Descending Washington Center
Tue 11:09:39 PM 35.9839 -78.8675 53° Northeast 443 510 24,900  Level Washington Center
Tue 11:10:39 PM 36.0603 -78.7447 52° Northeast 443 510 24,900  Level Washington Center
Tue 11:11:39 PM 36.1367 -78.6217 52° Northeast 443 510 24,900  Level Washington Center
Tue 11:12:40 PM 36.2106 -78.4983 53° Northeast 443 510 24,900  Level Washington Center
Tue 11:13:40 PM 36.2844 -78.3750 53° Northeast 443 510 24,900  Level Washington Center
Tue 11:14:39 PM 36.3581 -78.2511 54° Northeast 443 510 24,900  Level Washington Center
Tue 11:15:40 PM 36.4317 -78.1272 54° Northeast 443 510 24,900  Level Washington Center
Tue 11:16:40 PM 36.5053 -78.0028 54° Northeast 443 510 24,900  Level Washington Center
Tue 11:17:38 PM 36.5786 -77.8783 54° Northeast 443 510 24,900  Level Washington Center
Tue 11:18:38 PM 36.6519 -77.7536 54° Northeast 443 510 24,900  Level Washington Center
Tue 11:19:39 PM 36.7250 -77.6289 54° Northeast 448 516 24,900  Level Washington Center
Tue 11:20:40 PM 36.7981 -77.5036 54° Northeast 448 516 24,900  Level Washington Center
Tue 11:21:40 PM 36.8731 -77.3808 53° Northeast 448 516 24,900  Level Washington Center
Tue 11:22:38 PM 36.9436 -77.2550 55° Northeast 448 516 24,900  Level Washington Center
Tue 11:23:39 PM 37.0183 -77.1292 53° Northeast 443 510 24,900  Level Washington Center
Tue 11:24:38 PM 37.0950 -76.9928 55° Northeast 448 516 24,900  Level Washington Center
Tue 11:25:40 PM 37.1672 -76.8689 54° Northeast 448 516 24,900  Level Washington Center
Tue 11:26:38 PM 37.2394 -76.7450 54° Northeast 448 516 24,900  Level Washington Center
Tue 11:27:38 PM 37.3117 -76.6206 54° Northeast 443 510 24,900  Level Washington Center
Tue 11:28:39 PM 37.3836 -76.4936 54° Northeast 443 510 24,900  Level Washington Center
Tue 11:29:39 PM 37.4533 -76.3661 55° Northeast 443 510 24,900  Level Washington Center
Tue 11:30:40 PM 37.5394 -76.2597 44° Northeast 438 504 24,900  Level Washington Center
Tue 11:31:40 PM 37.6294 -76.1817 34° Northeast 441 507 24,900  Level Washington Center
Tue 11:32:38 PM 37.7406 -76.0856 34° Northeast 441 507 24,900  Level Washington Center
Tue 11:33:38 PM 37.8306 -75.9967 38° Northeast 441 507 24,900  Level Washington Center
Tue 11:34:39 PM 37.9267 -75.9050 37° Northeast 441 507 24,900  Level Washington Center
Tue 11:35:39 PM 38.0394 -75.8081 34° Northeast 441 507 24,900  Level Washington Center
Tue 11:36:37 PM 38.1231 -75.7183 40° Northeast 441 507 24,900  Level Washington Center
Tue 11:37:38 PM 38.2211 -75.6233 37° Northeast 441 507 24,900  Level Washington Center
Tue 11:38:39 PM 38.3358 -75.5256 34° Northeast 441 507 24,900  Level Washington Center
Tue 11:39:38 PM 38.4419 -75.4539 28° Northeast 441 507 24,900  Level Washington Center
Tue 11:40:39 PM 38.5503 -75.3847 27° Northeast 436 502 24,900  Level Washington Center
Tue 11:41:38 PM 38.6606 -75.3125 27° Northeast 431 496 24,900  Level Washington Center
Tue 11:42:39 PM 38.7711 -75.2403 27° Northeast 431 496 24,900  Level Washington Center
Tue 11:43:39 PM 38.8728 -75.1703 28° Northeast 426 490 24,900 -500 Level Washington Center
Tue 11:44:39 PM 38.9769 -75.1056 26° Northeast 420 483 23,900 -992 Descending Washington Center
Tue 11:45:40 PM 39.0808 -75.0356 28° Northeast 420 483 22,900 -504 Descending Washington Center
Tue 11:46:38 PM 39.1825 -74.9678 27° Northeast 415 478 22,900  Level Washington Center
Tue 11:47:38 PM 39.2864 -74.8997 27° Northeast 410 472 22,900  Level Washington Center
Tue 11:48:39 PM 39.3881 -74.8317 27° Northeast 410 472 22,900  Level Washington Center
Tue 11:49:39 PM 39.4878 -74.7633 28° Northeast 410 472 22,900  Level Washington Center
Tue 11:51:55 PM 39.7069 -74.6186 27° Northeast 398 458 22,900  Level New York Center
Tue 11:52:53 PM 39.8111 -74.5514 26° Northeast 398 458 22,900  Level New York Center
Tue 11:53:55 PM 39.9072 -74.4783 30° Northeast 398 458 22,900  Level New York Center
Tue 11:54:54 PM 40.0053 -74.4103 28° Northeast 398 458 22,900  Level New York Center
Tue 11:55:54 PM 40.1128 -74.3725 15° North 398 458 22,900  Level New York Center
Tue 11:56:53 PM 40.2261 -74.3486 North 398 458 22,900  Level New York Center
Tue 11:57:54 PM 40.3372 -74.3269 North 398 458 22,900  Level New York Center
Tue 11:58:53 PM 40.4464 -74.3028 10° North 398 458 22,900  Level New York Center
Tue 11:59:53 PM 40.5572 -74.2811 North 398 458 22,900  Level New York Center
Wed 12:01:49 AM 40.7814 -74.2353 North 396 456 22,900  Level Boston Center
Wed 12:02:49 AM 40.8900 -74.2136 North 402 463 22,900  Level Boston Center
Wed 12:03:49 AM 40.9989 -74.1892 10° North 402 463 22,900  Level Boston Center
Wed 12:05:01 AM 41.1286 -74.1597 10° North 396 456 22,900  Level Boston Center
Wed 12:06:01 AM 41.2350 -74.1378 North 389 448 22,900  Level Boston Center
Wed 12:07:01 AM 41.3314 -74.1153 10° North 389 448 22,900  Level Boston Center
Wed 12:08:01 AM 41.4322 -74.0542 24° Northeast 389 448 22,900  Level Boston Center
Wed 12:09:01 AM 41.5378 -73.9656 32° Northeast 389 448 22,900 -700 Level Boston Center
Wed 12:10:01 AM 41.6325 -73.8844 33° Northeast 401 461 21,500 -1,650 Descending Boston Center
Wed 12:11:01 AM 41.7247 -73.8419 19° North 394 453 19,600 -2,100 Descending Boston Center
Wed 12:12:01 AM 41.8267 -73.8525 356° North 354 407 17,300 -2,700 Descending Boston Center
Wed 12:13:01 AM 41.9164 -73.8461 North 354 407 14,200 -2,700 Descending Boston Center
Wed 12:14:01 AM 42.0142 -73.8764 347° North 333 383 11,900 -1,488 Descending Boston Center
Wed 12:15:10 AM 42.1114 -73.9178 342° North 318 366 11,000 -465 Descending Boston Center
Wed 12:16:10 AM 42.1967 -73.9478 345° North 324 373 10,900 -793 Descending Boston Center
Wed 12:17:11 AM 42.2778 -73.9608 353° North 282 325 9,400 -1,672 Descending Boston Center
Wed 12:18:12 AM 42.3586 -73.9769 352° North 270 311 7,500 -1,785 Descending Boston Center
Wed 12:19:12 AM 42.4361 -73.9536 13° North 279 321 5,800 -1,537 Descending Boston Center
Wed 12:20:13 AM 42.5092 -73.9442 North 270 311 4,400 -893 Descending Boston Center
Wed 12:21:13 AM 42.5842 -73.9431 North 262 302 4,000 -198 Descending Boston Center
Wed 12:22:14 AM 42.6572 -73.9419 North 268 308 4,000 -393 Level Boston Center
Wed 12:23:15 AM 42.7322 -73.9439 359° North 264 304 3,200 -496 Descending Boston Center
Wed 12:24:15 AM 42.8053 -73.9456 359° North 256 295 3,000 -99 Descending Boston Center
Wed 12:25:16 AM 42.8781 -73.9503 357° North 261 300 3,000 -248 Level Boston Center
Wed 12:26:16 AM 42.9122 -73.8858 54° Northeast 229 264 2,500 -496 Descending Boston Center
Wed 12:27:17 AM 42.8986 -73.8175 105° East 196 226 2,000 -492 Descending Boston Center

Login

Don't have an account? Register now (free) for customized features, flight alerts, and more!